Time;durP1;ratioP1;P1;durP2;ratioP2;P2;SDS_P1;SDS_P2;PMS_P1;PMS_P2;Temp;Humidity;BMP_temperature;BMP_pressure;BME280_temperature;BME280_humidity;BME280_pressure;Samples;Min_cycle;Max_cycle;Signal;HPM_P1;HPM_P2
2022/12/16 00:00:37;;;;;;;15.85;11.73;;;17.90;75.70;;;;;;4177926;28;20262;-78
2022/12/16 00:02:39;;;;;;;13.68;11.90;;;17.90;75.80;;;;;;4175695;28;20216;-79
2022/12/16 00:04:43;;;;;;;14.48;12.00;;;17.90;75.50;;;;;;4175901;28;20289;-79
2022/12/16 00:06:45;;;;;;;13.20;11.57;;;17.90;75.90;;;;;;4177916;28;20215;-79
2022/12/16 00:08:47;;;;;;;12.50;11.13;;;17.90;75.50;;;;;;4177714;28;20279;-79
2022/12/16 00:10:52;;;;;;;14.70;12.25;;;17.90;75.40;;;;;;4176486;28;20559;-78
2022/12/16 00:12:55;;;;;;;13.85;11.90;;;17.90;75.70;;;;;;4178335;28;20280;-79
2022/12/16 00:14:57;;;;;;;16.05;12.05;;;17.80;75.80;;;;;;4177727;28;20718;-78
2022/12/16 00:16:59;;;;;;;15.15;11.73;;;17.80;75.20;;;;;;4178774;28;20220;-79
2022/12/16 00:19:02;;;;;;;14.50;12.05;;;17.80;75.20;;;;;;4179173;28;20224;-79
2022/12/16 00:21:06;;;;;;;15.43;12.30;;;17.80;75.70;;;;;;4171278;28;20262;-79
2022/12/16 00:23:09;;;;;;;14.68;12.20;;;17.80;75.50;;;;;;4177502;28;20223;-79
2022/12/16 00:25:11;;;;;;;13.38;11.45;;;17.80;75.20;;;;;;4178709;28;20248;-79
2022/12/16 00:27:14;;;;;;;14.82;11.60;;;17.80;75.10;;;;;;4172799;28;20220;-79
2022/12/16 00:29:16;;;;;;;13.82;10.85;;;17.80;75.40;;;;;;4179009;28;20227;-79
2022/12/16 00:31:19;;;;;;;13.48;11.43;;;17.80;75.70;;;;;;4178386;28;20211;-79
2022/12/16 00:33:23;;;;;;;12.55;11.00;;;17.70;75.10;;;;;;4178268;28;20299;-79
2022/12/16 00:35:25;;;;;;;13.43;10.75;;;17.70;75.30;;;;;;4178409;28;20224;-78
2022/12/16 00:37:29;;;;;;;14.80;11.93;;;17.80;75.70;;;;;;4178850;28;20216;-78
2022/12/16 00:39:31;;;;;;;14.45;11.48;;;17.80;75.50;;;;;;4178429;28;20333;-78
2022/12/16 00:41:34;;;;;;;15.88;11.75;;;17.80;75.20;;;;;;4177090;28;20216;-78
2022/12/16 00:43:36;;;;;;;12.82;10.88;;;17.80;74.80;;;;;;4178700;28;20212;-79
2022/12/16 00:45:38;;;;;;;12.82;11.10;;;17.80;75.40;;;;;;4172400;28;20235;-79
2022/12/16 00:47:41;;;;;;;13.88;11.82;;;17.80;75.20;;;;;;4178573;28;20298;-79
2022/12/16 00:49:43;;;;;;;13.23;11.65;;;17.80;75.30;;;;;;4178469;28;20222;-78
2022/12/16 00:51:45;;;;;;;13.50;11.27;;;17.70;75.10;;;;;;4170472;28;20277;-79
2022/12/16 00:53:49;;;;;;;13.88;11.10;;;17.70;75.20;;;;;;4170784;28;20269;-79
2022/12/16 00:55:52;;;;;;;13.35;11.23;;;17.70;75.30;;;;;;4175941;28;20215;-79
2022/12/16 00:57:54;;;;;;;13.27;11.15;;;17.70;75.40;;;;;;4178730;28;20578;-79
2022/12/16 00:59:57;;;;;;;13.07;11.57;;;17.70;75.00;;;;;;4175167;28;20219;-79
2022/12/16 01:01:59;;;;;;;15.35;11.88;;;17.70;74.80;;;;;;4175170;28;20220;-79
2022/12/16 01:04:01;;;;;;;14.63;11.20;;;17.70;75.10;;;;;;4177092;28;20227;-79
2022/12/16 01:06:08;;;;;;;13.52;10.68;;;17.70;74.90;;;;;;4178404;28;20223;-79
2022/12/16 01:08:10;;;;;;;13.80;10.98;;;17.70;75.30;;;;;;4176055;28;20204;-78
2022/12/16 01:10:14;;;;;;;13.77;11.25;;;17.70;74.90;;;;;;4178546;28;20617;-79
2022/12/16 01:12:16;;;;;;;12.73;11.30;;;17.70;75.10;;;;;;4178449;28;20223;-79
2022/12/16 01:14:19;;;;;;;14.27;11.23;;;17.70;74.70;;;;;;4178527;28;20266;-79
2022/12/16 01:16:21;;;;;;;13.65;11.50;;;17.70;74.70;;;;;;4178428;28;20733;-79
2022/12/16 01:18:23;;;;;;;13.13;11.23;;;17.60;74.40;;;;;;4177030;28;20212;-79
2022/12/16 01:20:26;;;;;;;12.88;11.23;;;17.60;74.90;;;;;;4176286;28;20216;-79
2022/12/16 01:22:30;;;;;;;12.57;11.27;;;17.60;75.10;;;;;;4176302;28;20619;-78
2022/12/16 01:24:33;;;;;;;13.75;11.50;;;17.60;74.60;;;;;;4177857;28;20235;-78
2022/12/16 01:26:38;;;;;;;13.85;11.65;;;17.60;74.80;;;;;;4175094;28;20224;-79
2022/12/16 01:28:40;;;;;;;13.15;10.93;;;17.60;75.50;;;;;;4176938;28;20247;-79
2022/12/16 01:30:42;;;;;;;14.25;11.48;;;17.50;74.90;;;;;;4179005;28;20220;-78
2022/12/16 01:32:45;;;;;;;12.77;11.18;;;17.60;74.70;;;;;;4178374;28;20293;-79
2022/12/16 01:34:50;;;;;;;13.00;10.65;;;17.60;74.30;;;;;;4175925;28;20215;-79
2022/12/16 01:36:52;;;;;;;13.70;11.60;;;17.60;74.70;;;;;;4178027;28;20270;-79
2022/12/16 01:38:55;;;;;;;12.25;10.48;;;17.60;74.30;;;;;;4177916;28;20258;-79
2022/12/16 01:40:57;;;;;;;14.38;11.43;;;17.60;74.40;;;;;;4178594;28;20277;-79
2022/12/16 01:43:01;;;;;;;12.07;10.77;;;17.60;74.20;;;;;;4174176;28;20622;-79
2022/12/16 01:45:31;;;;;;;13.15;11.15;;;17.60;74.30;;;;;;4164833;28;20290;-78
2022/12/16 01:47:34;;;;;;;15.25;11.18;;;17.60;74.30;;;;;;4176725;28;20224;-79
2022/12/16 01:49:39;;;;;;;12.75;11.35;;;17.50;74.30;;;;;;4178374;28;20269;-79
2022/12/16 01:51:44;;;;;;;13.10;11.18;;;17.50;74.30;;;;;;4178476;28;20270;-78
2022/12/16 01:53:49;;;;;;;13.05;11.07;;;17.50;74.70;;;;;;4178217;28;20212;-78
2022/12/16 01:55:55;;;;;;;14.95;11.13;;;17.50;74.00;;;;;;4178533;28;20673;-78
2022/12/16 01:58:02;;;;;;;12.63;11.10;;;17.50;74.90;;;;;;4177884;28;20220;-78
2022/12/16 02:00:06;;;;;;;13.93;11.85;;;17.50;74.50;;;;;;4178472;28;20216;-78
2022/12/16 02:02:09;;;;;;;13.77;11.23;;;17.50;74.50;;;;;;4176300;28;20606;-78
2022/12/16 02:04:12;;;;;;;13.73;11.73;;;17.50;74.30;;;;;;4176113;28;20237;-78
2022/12/16 02:06:15;;;;;;;15.10;11.85;;;17.50;74.20;;;;;;4174785;28;20273;-78
2022/12/16 02:08:19;;;;;;;12.82;11.52;;;17.50;74.30;;;;;;4173881;28;20216;-78
2022/12/16 02:10:28;;;;;;;13.20;11.18;;;17.50;74.00;;;;;;4178165;28;20726;-78
2022/12/16 02:12:39;;;;;;;12.77;10.82;;;17.40;74.70;;;;;;4179783;28;20615;-78
2022/12/16 02:15:05;;;;;;;14.23;11.02;;;17.50;74.10;;;;;;4181037;28;20688;-78
2022/12/16 02:17:15;;;;;;;14.25;11.15;;;17.40;74.20;;;;;;4177257;28;20269;-78
2022/12/16 02:19:44;;;;;;;14.43;11.30;;;17.50;74.10;;;;;;4173814;28;20207;-78
2022/12/16 02:21:52;;;;;;;13.57;10.88;;;17.40;74.10;;;;;;4170014;28;20231;-78
2022/12/16 02:24:18;;;;;;;12.70;11.00;;;17.40;74.00;;;;;;4181060;28;20238;-78
2022/12/16 02:26:48;;;;;;;12.65;10.48;;;17.40;74.20;;;;;;4180938;28;20250;-78
2022/12/16 02:29:11;;;;;;;15.35;11.82;;;17.40;74.00;;;;;;4127278;28;20219;-78
2022/12/16 02:31:23;;;;;;;14.55;10.98;;;17.40;74.80;;;;;;4180747;28;20281;-78
2022/12/16 02:33:41;;;;;;;11.80;10.57;;;17.40;74.10;;;;;;4169324;28;20293;-78
2022/12/16 02:35:50;;;;;;;14.45;10.93;;;17.40;73.90;;;;;;4181141;28;20368;-78
2022/12/16 02:38:07;;;;;;;13.75;10.93;;;17.40;74.20;;;;;;4178550;28;20682;-78
2022/12/16 02:40:16;;;;;;;14.55;10.95;;;17.40;73.80;;;;;;4171951;28;20208;-78
2022/12/16 02:42:26;;;;;;;14.50;10.43;;;17.40;74.30;;;;;;4171707;28;20216;-78
2022/12/16 02:44:36;;;;;;;13.10;11.10;;;17.40;73.90;;;;;;4179277;28;20238;-79
2022/12/16 02:46:51;;;;;;;14.02;11.63;;;17.30;74.40;;;;;;4180984;28;20661;-79
2022/12/16 02:48:54;;;;;;;13.30;11.10;;;17.40;74.10;;;;;;4171980;28;20215;-79
2022/12/16 02:50:56;;;;;;;13.93;11.30;;;17.40;73.50;;;;;;4172644;28;20219;-79
2022/12/16 02:53:01;;;;;;;13.48;11.07;;;17.40;73.80;;;;;;4173717;28;20212;-78
2022/12/16 02:55:07;;;;;;;12.50;11.15;;;17.40;74.10;;;;;;4178872;28;20212;-78
2022/12/16 02:57:29;;;;;;;14.93;10.75;;;17.40;73.60;;;;;;4180130;28;20736;-78
2022/12/16 02:59:41;;;;;;;12.93;11.20;;;17.30;73.90;;;;;;4175336;28;20215;-78
2022/12/16 03:01:51;;;;;;;16.35;10.95;;;17.30;73.70;;;;;;4175617;28;20636;-78
2022/12/16 03:04:01;;;;;;;12.90;10.88;;;17.30;73.50;;;;;;4176344;28;20212;-78
2022/12/16 03:06:05;;;;;;;12.80;10.50;;;17.30;73.60;;;;;;4178349;28;20235;-78
2022/12/16 03:08:12;;;;;;;13.07;11.10;;;17.30;73.70;;;;;;4177206;28;20228;-78
2022/12/16 03:10:18;;;;;;;12.38;10.70;;;17.30;73.90;;;;;;4179164;28;20282;-78
2022/12/16 03:12:22;;;;;;;13.95;11.35;;;17.30;73.50;;;;;;4178140;28;20618;-78
2022/12/16 03:14:29;;;;;;;12.18;10.48;;;17.30;73.60;;;;;;4176652;28;20212;-78
2022/12/16 03:16:33;;;;;;;13.90;11.02;;;17.30;73.40;;;;;;4178584;28;21017;-78
2022/12/16 03:18:39;;;;;;;11.88;10.60;;;17.30;73.50;;;;;;4176948;28;20220;-78
2022/12/16 03:20:46;;;;;;;11.98;10.45;;;17.30;73.30;;;;;;4177976;28;20220;-78
2022/12/16 03:22:52;;;;;;;11.32;10.10;;;17.30;73.40;;;;;;4178531;28;20270;-78
2022/12/16 03:24:54;;;;;;;13.13;11.02;;;17.30;73.50;;;;;;4177076;28;20219;-79
2022/12/16 03:27:04;;;;;;;11.68;10.00;;;17.30;73.40;;;;;;4175041;28;20212;-78
2022/12/16 03:29:12;;;;;;;13.10;11.07;;;17.30;73.60;;;;;;4179380;28;20216;-78
2022/12/16 03:31:25;;;;;;;12.40;10.38;;;17.20;73.60;;;;;;4178886;28;20273;-78
2022/12/16 03:33:32;;;;;;;11.80;10.52;;;17.30;73.60;;;;;;4177281;28;20756;-79
2022/12/16 03:35:41;;;;;;;13.27;10.43;;;17.30;73.50;;;;;;4178808;28;20262;-78
2022/12/16 03:37:46;;;;;;;11.80;10.18;;;17.30;73.20;;;;;;4178797;28;20227;-78
2022/12/16 03:39:52;;;;;;;11.50;10.23;;;17.30;73.20;;;;;;4178484;28;20615;-78
2022/12/16 03:41:55;;;;;;;13.13;10.88;;;17.30;73.40;;;;;;4178259;28;20216;-78
2022/12/16 03:43:58;;;;;;;12.52;10.23;;;17.30;73.20;;;;;;4177376;28;20220;-79
2022/12/16 03:46:05;;;;;;;12.02;9.68;;;17.30;73.20;;;;;;4178264;28;20281;-78
2022/12/16 03:48:10;;;;;;;11.77;10.25;;;17.20;73.40;;;;;;4176706;28;20288;-78
2022/12/16 03:50:12;;;;;;;14.80;10.80;;;17.20;73.40;;;;;;4178017;28;20262;-78
2022/12/16 03:52:16;;;;;;;11.77;9.85;;;17.20;73.40;;;;;;4177333;28;20270;-78
2022/12/16 03:54:18;;;;;;;11.52;10.32;;;17.20;73.40;;;;;;4178347;28;20265;-78
2022/12/16 03:56:21;;;;;;;11.68;9.95;;;17.20;73.40;;;;;;4176457;28;20947;-78
2022/12/16 03:58:23;;;;;;;11.70;10.40;;;17.20;73.30;;;;;;4178519;28;20215;-79
2022/12/16 04:00:26;;;;;;;12.77;10.25;;;17.20;73.40;;;;;;4177725;28;20530;-78
2022/12/16 04:02:28;;;;;;;12.07;10.75;;;17.20;73.10;;;;;;4178280;28;20281;-79
2022/12/16 04:04:30;;;;;;;13.23;10.80;;;17.20;73.50;;;;;;4177500;28;20212;-78
2022/12/16 04:06:33;;;;;;;12.20;10.07;;;17.20;73.20;;;;;;4178162;28;20235;-79
2022/12/16 04:08:36;;;;;;;11.88;10.25;;;17.20;73.70;;;;;;4178205;28;20212;-79
2022/12/16 04:24:54;;;;;;;11.80;9.65;;;17.20;73.10;;;;;;4125552;28;20190;-79
2022/12/16 04:29:17;;;;;;;12.65;10.18;;;17.10;73.50;;;;;;4177042;28;20204;-79
2022/12/16 04:31:19;;;;;;;12.48;10.75;;;17.10;73.60;;;;;;4177037;28;20568;-79
